Time;durP1;ratioP1;P1;durP2;ratioP2;P2;SDS_P1;SDS_P2;PMS_P1;PMS_P2;Temp;Humidity;BMP_temperature;BMP_pressure;BME280_temperature;BME280_humidity;BME280_pressure;Samples;Min_cycle;Max_cycle;Signal;HPM_P1;HPM_P2
2023/03/15 00:01:23;;;;;;;18.02;8.15;;;;;;;12.14;72.09;101067.31;10337934;28;96651;-76
2023/03/15 00:06:26;;;;;;;19.92;8.02;;;;;;;12.05;72.68;101076.41;10339100;28;96558;-75
2023/03/15 00:11:31;;;;;;;16.10;7.40;;;;;;;11.99;72.74;101065.19;10343797;28;96664;-75
2023/03/15 00:16:34;;;;;;;16.02;7.45;;;;;;;11.83;72.87;101061.31;10343061;28;96658;-75
2023/03/15 00:21:38;;;;;;;15.77;7.25;;;;;;;11.77;72.38;101059.72;10343822;28;96713;-75
2023/03/15 00:26:43;;;;;;;18.88;7.80;;;;;;;11.94;71.96;101059.22;10328651;28;96836;-76
2023/03/15 00:31:46;;;;;;;20.80;7.93;;;;;;;11.92;71.87;101054.00;10302616;28;97095;-75
2023/03/15 00:36:52;;;;;;;16.50;7.55;;;;;;;11.92;72.05;101048.72;10302194;28;96739;-75
2023/03/15 00:41:57;;;;;;;16.67;7.85;;;;;;;11.76;72.59;101052.75;10342370;28;96753;-75
2023/03/15 00:47:00;;;;;;;20.85;8.30;;;;;;;11.74;73.05;101044.00;10301851;28;96824;-75
2023/03/15 00:52:03;;;;;;;18.10;7.13;;;;;;;11.78;71.90;101040.38;10302460;28;96711;-75
2023/03/15 00:57:08;;;;;;;18.60;7.45;;;;;;;11.69;73.39;101035.41;10323889;28;96512;-75
2023/03/15 01:02:12;;;;;;;14.60;6.90;;;;;;;11.53;73.21;101031.50;10315504;28;96819;-75
2023/03/15 01:07:15;;;;;;;21.35;8.38;;;;;;;11.47;74.32;101031.72;10300034;28;96744;-75
2023/03/15 01:12:20;;;;;;;19.48;7.22;;;;;;;11.52;73.57;101023.66;10301168;28;96620;-75
2023/03/15 01:17:23;;;;;;;20.83;7.50;;;;;;;11.64;72.51;101018.00;10300448;28;97212;-76
2023/03/15 01:22:26;;;;;;;18.80;7.72;;;;;;;11.60;73.14;101022.50;10300978;28;96967;-75
2023/03/15 01:27:31;;;;;;;14.70;6.97;;;;;;;11.34;73.63;101017.16;10300011;28;96662;-75
2023/03/15 01:32:34;;;;;;;13.87;7.10;;;;;;;11.22;74.01;101012.28;10300432;28;96801;-75
2023/03/15 01:37:37;;;;;;;16.55;7.07;;;;;;;11.03;74.66;101006.66;10339097;28;96756;-75
2023/03/15 01:43:14;;;;;;;13.02;6.65;;;;;;;10.92;75.01;100992.94;10342384;28;96704;-75
2023/03/15 01:48:18;;;;;;;17.42;7.25;;;;;;;10.73;75.75;100990.91;10341110;28;96762;-75
2023/03/15 01:53:23;;;;;;;16.00;7.45;;;;;;;10.73;75.77;100980.38;10340363;28;97255;-75
2023/03/15 01:58:29;;;;;;;16.35;6.85;;;;;;;10.87;75.12;100984.31;10339533;28;96799;-75
2023/03/15 02:03:38;;;;;;;12.52;6.18;;;;;;;10.85;75.50;100982.66;10340819;28;96687;-75
2023/03/15 02:08:46;;;;;;;18.63;6.53;;;;;;;10.68;75.95;100979.66;10326109;28;97308;-75
2023/03/15 02:13:52;;;;;;;16.60;7.55;;;;;;;10.51;76.74;100985.38;10299773;28;96801;-75
2023/03/15 02:18:55;;;;;;;20.40;7.00;;;;;;;10.49;77.40;100981.06;10299154;28;98229;-75
2023/03/15 02:24:06;;;;;;;13.70;6.07;;;;;;;10.60;76.38;100971.94;10299709;28;97647;-75
2023/03/15 02:29:11;;;;;;;15.02;7.00;;;;;;;10.51;76.59;100973.97;10334610;28;96847;-75
2023/03/15 02:34:14;;;;;;;;;;;;;;;10.53;77.64;100972.16;10340764;28;97425;-75
2023/03/15 02:39:20;;;;;;;16.52;6.50;;;;;;;10.66;75.79;100971.75;10340116;28;97061;-75
2023/03/15 02:44:29;;;;;;;14.63;5.90;;;;;;;10.80;74.60;100969.59;10310069;28;97668;-75
2023/03/15 02:49:37;;;;;;;14.52;7.20;;;;;;;10.69;75.16;100966.44;10296976;28;96763;-75
2023/03/15 02:54:42;;;;;;;17.05;6.32;;;;;;;10.73;74.66;100960.16;10298020;28;96716;-75
2023/03/15 02:59:49;;;;;;;16.23;6.78;;;;;;;10.64;75.87;100959.56;10328055;28;96792;-75
2023/03/15 03:04:52;;;;;;;16.20;6.85;;;;;;;10.46;75.45;100939.91;10338712;28;96701;-75
2023/03/15 03:09:56;;;;;;;18.80;7.13;;;;;;;10.25;76.90;100935.22;10338429;28;96664;-75
2023/03/15 03:15:01;;;;;;;11.30;6.38;;;;;;;10.22;76.54;100927.44;10337743;28;96673;-75
2023/03/15 03:20:06;;;;;;;15.32;6.72;;;;;;;10.16;77.00;100917.94;10337981;28;96857;-75
2023/03/15 03:25:10;;;;;;;15.43;7.22;;;;;;;9.96;76.88;100899.22;10338991;28;96601;-75
2023/03/15 03:30:16;;;;;;;51.75;9.98;;;;;;;9.74;78.48;100902.44;10337126;28;96680;-75
2023/03/15 03:35:19;;;;;;;22.30;7.70;;;;;;;9.76;78.67;100892.78;10309708;28;96582;-75
2023/03/15 03:40:22;;;;;;;14.25;6.88;;;;;;;9.71;78.17;100892.03;10320786;28;96725;-75
2023/03/15 03:45:26;;;;;;;12.07;5.93;;;;;;;9.74;77.85;100895.44;10345130;28;96807;-75
2023/03/15 03:50:30;;;;;;;32.53;8.57;;;;;;;9.53;78.62;100887.22;10331502;28;96772;-75
2023/03/15 03:55:33;;;;;;;35.60;8.85;;;;;;;9.50;79.70;100879.44;10303786;28;96668;-75
2023/03/15 04:00:38;;;;;;;12.63;6.70;;;;;;;9.55;78.80;100872.28;10341483;28;97539;-75
2023/03/15 04:05:41;;;;;;;12.27;5.30;;;;;;;9.60;78.36;100870.41;10344674;28;97315;-75
2023/03/15 04:10:45;;;;;;;13.70;6.25;;;;;;;9.49;78.13;100860.16;10299017;28;96729;-75
2023/03/15 04:15:50;;;;;;;16.80;6.72;;;;;;;9.37;78.35;100860.50;10298598;28;96862;-75
2023/03/15 04:20:54;;;;;;;54.78;9.63;;;;;;;9.24;78.97;100860.84;10297641;28;96639;-75
2023/03/15 04:25:57;;;;;;;110.40;12.25;;;;;;;9.10;80.18;100858.50;10298043;28;96597;-75
2023/03/15 04:31:02;;;;;;;9.52;5.70;;;;;;;9.19;79.68;100860.88;10334649;28;96800;-75
2023/03/15 04:36:05;;;;;;;11.97;5.80;;;;;;;9.15;79.04;100857.47;10338353;28;96974;-75
2023/03/15 04:41:10;;;;;;;17.48;6.00;;;;;;;9.14;78.94;100860.16;10328250;28;97088;-75
2023/03/15 04:46:14;;;;;;;203.23;18.45;;;;;;;9.08;80.35;100868.19;10296736;28;96601;-75
2023/03/15 04:51:17;;;;;;;83.33;9.63;;;;;;;9.17;80.64;100867.09;10296525;28;97496;-75
2023/03/15 04:56:20;;;;;;;182.77;15.70;;;;;;;9.02;80.32;100858.69;10295989;28;97303;-75
2023/03/15 05:01:29;;;;;;;80.00;9.90;;;;;;;9.03;80.42;100857.78;10296910;28;96763;-75
2023/03/15 05:06:32;;;;;;;98.75;11.50;;;;;;;9.00;80.42;100849.97;10296814;28;97199;-75
2023/03/15 05:11:35;;;;;;;83.45;9.93;;;;;;;9.04;80.16;100848.16;10296088;28;97002;-75
2023/03/15 05:16:42;;;;;;;10.85;5.95;;;;;;;9.10;79.66;100845.38;10296423;28;96581;-75
2023/03/15 05:21:45;;;;;;;12.10;5.55;;;;;;;9.22;79.33;100845.09;10294471;28;96603;-75
2023/03/15 05:26:48;;;;;;;12.65;5.35;;;;;;;9.16;78.76;100850.47;10299649;28;96733;-75
2023/03/15 05:31:52;;;;;;;11.77;5.65;;;;;;;9.12;79.02;100841.81;10335447;28;96802;-75
2023/03/15 05:36:56;;;;;;;13.13;6.03;;;;;;;9.16;79.33;100834.72;10336211;28;96841;-75
2023/03/15 05:41:59;;;;;;;11.57;5.78;;;;;;;9.11;78.95;100823.47;10336061;28;96621;-75
2023/03/15 05:47:04;;;;;;;10.30;5.70;;;;;;;8.99;79.59;100826.41;10336062;28;96632;-76
2023/03/15 05:52:07;;;;;;;11.63;5.93;;;;;;;8.98;79.53;100828.16;10334987;28;96854;-75
2023/03/15 05:57:11;;;;;;;42.20;8.10;;;;;;;8.89;80.18;100822.28;10335898;28;96523;-75
2023/03/15 06:02:15;;;;;;;9.90;6.07;;;;;;;8.80;80.34;100818.09;10335431;28;96645;-76
2023/03/15 06:07:20;;;;;;;14.43;6.90;;;;;;;8.90;80.27;100823.97;10315083;28;96772;-75
2023/03/15 06:12:23;;;;;;;25.05;8.07;;;;;;;8.74;80.75;100825.25;10292913;28;96605;-75
2023/03/15 06:17:27;;;;;;;29.23;7.93;;;;;;;8.70;80.98;100824.47;10293725;28;97121;-75
2023/03/15 06:22:30;;;;;;;11.70;7.47;;;;;;;8.76;80.23;100815.56;10294136;28;96746;-75
2023/03/15 06:27:34;;;;;;;11.77;5.80;;;;;;;8.92;79.40;100815.19;10292762;28;96823;-75
2023/03/15 06:32:38;;;;;;;12.30;5.15;;;;;;;9.06;78.66;100814.84;10330883;28;96802;-75
2023/03/15 06:37:41;;;;;;;12.33;5.13;;;;;;;9.13;78.92;100805.94;10334022;28;96802;-75
2023/03/15 06:42:44;;;;;;;11.10;5.15;;;;;;;9.16;78.33;100813.72;10301970;28;96605;-75
2023/03/15 06:47:49;;;;;;;13.07;5.50;;;;;;;9.15;78.59;100799.72;10293484;28;96703;-75
2023/03/15 06:52:52;;;;;;;14.83;5.63;;;;;;;9.20;78.16;100804.88;10292889;28;96873;-75
2023/03/15 06:57:55;;;;;;;12.98;5.43;;;;;;;9.26;78.17;100806.53;10308965;28;96663;-75
2023/03/15 07:03:00;;;;;;;9.27;4.60;;;;;;;9.23;77.64;100810.03;10331979;28;96729;-75
2023/03/15 07:08:03;;;;;;;13.13;4.90;;;;;;;9.36;77.68;100810.63;10333353;28;96781;-76
2023/03/15 07:13:08;;;;;;;12.55;6.18;;;;;;;9.44;77.09;100801.66;10332317;28;96731;-75
2023/03/15 07:18:12;;;;;;;13.23;4.80;;;;;;;9.48;77.11;100798.03;10332239;28;97204;-75
2023/03/15 07:23:15;;;;;;;16.97;4.97;;;;;;;9.54;77.35;100803.13;10332931;28;96696;-75
2023/03/15 07:28:19;;;;;;;9.35;4.43;;;;;;;9.63;76.59;100802.88;10332359;28;96996;-75
2023/03/15 07:33:25;;;;;;;12.73;4.15;;;;;;;9.83;76.19;100799.72;10304704;28;97351;-75
2023/03/15 07:38:28;;;;;;;6.60;3.25;;;;;;;11.01;74.12;100786.41;10292517;28;96722;-76
2023/03/15 07:43:32;;;;;;;9.20;3.72;;;;;;;11.96;70.97;100777.81;10291769;28;96717;-76
2023/03/15 07:48:36;;;;;;;9.55;3.88;;;;;;;12.73;68.33;100780.97;10291924;28;96668;-76
2023/03/15 07:53:39;;;;;;;8.77;3.88;;;;;;;13.34;66.12;100782.81;10290781;28;96942;-76
2023/03/15 07:58:43;;;;;;;9.77;3.67;;;;;;;14.36;63.46;100780.00;10300468;28;96896;-76
2023/03/15 08:03:47;;;;;;;8.50;3.60;;;;;;;14.49;61.90;100769.66;10332101;28;96784;-76
2023/03/15 08:08:51;;;;;;;9.48;3.88;;;;;;;14.84;60.72;100766.19;10330960;28;96941;-76
2023/03/15 08:13:54;;;;;;;8.23;3.53;;;;;;;15.24;58.50;100765.06;10331865;28;97196;-75
2023/03/15 08:18:58;;;;;;;7.13;3.70;;;;;;;15.76;56.79;100770.31;10331730;28;96816;-75
2023/03/15 08:24:02;;;;;;;9.23;3.60;;;;;;;16.41;55.71;100766.78;10330703;28;96654;-76
2023/03/15 08:29:05;;;;;;;9.77;3.63;;;;;;;16.49;54.56;100776.97;10335341;28;96855;-76
2023/03/15 08:34:10;;;;;;;8.20;4.07;;;;;;;16.43;54.17;100772.88;10338427;28;96675;-75
2023/03/15 08:39:14;;;;;;;9.35;3.40;;;;;;;16.46;53.79;100763.88;10327321;28;96572;-76
2023/03/15 08:44:17;;;;;;;9.73;3.95;;;;;;;17.47;51.85;100769.47;10296335;28;97303;-75
2023/03/15 08:49:22;;;;;;;8.65;4.22;;;;;;;16.50;53.35;100758.31;10296491;28;96552;-76
2023/03/15 08:54:26;;;;;;;8.60;3.60;;;;;;;16.47;52.75;100752.28;10296523;28;96769;-76
2023/03/15 08:59:31;;;;;;;9.27;4.00;;;;;;;16.83;52.31;100752.88;10297828;28;97112;-76
2023/03/15 09:04:36;;;;;;;10.13;4.57;;;;;;;17.61;50.39;100750.03;10337384;28;96723;-76
2023/03/15 09:09:39;;;;;;;20.63;11.52;;;;;;;17.64;50.13;100739.22;10337651;28;97137;-75
2023/03/15 09:14:43;;;;;;;20.95;10.80;;;;;;;18.35;49.38;100732.06;10336188;28;96651;-76
2023/03/15 09:19:47;;;;;;;14.43;7.77;;;;;;;18.32;48.53;100732.22;10337540;28;97052;-76
2023/03/15 09:24:51;;;;;;;18.10;10.48;;;;;;;18.44;47.92;100721.66;10336507;28;97041;-75
2023/03/15 09:29:54;;;;;;;15.70;8.23;;;;;;;19.25;46.94;100721.53;10335238;28;97371;-76
2023/03/15 09:34:59;;;;;;;15.85;9.13;;;;;;;19.49;45.95;100707.53;10335544;28;96655;-75
2023/03/15 09:40:03;;;;;;;14.00;6.60;;;;;;;18.86;46.42;100702.03;10335098;28;96908;-76
2023/03/15 09:45:15;;;;;;;10.77;5.55;;;;;;;19.71;45.26;100697.06;10335954;28;96648;-76
2023/03/15 09:50:29;;;;;;;11.57;5.10;;;;;;;20.47;43.81;100695.13;10299732;28;97819;-76
2023/03/15 09:55:33;;;;;;;11.15;5.40;;;;;;;20.67;43.47;100689.16;10294347;28;97173;-74
2023/03/15 10:00:39;;;;;;;15.57;5.07;;;;;;;20.26;43.82;100678.78;10304432;28;96969;-76
2023/03/15 10:05:47;;;;;;;9.48;4.35;;;;;;;20.03;44.20;100682.28;10312377;28;96840;-76
2023/03/15 10:10:54;;;;;;;10.52;5.05;;;;;;;20.65;43.13;100672.38;10294580;28;96906;-76
2023/03/15 10:16:11;;;;;;;10.52;4.05;;;;;;;20.02;43.70;100654.72;10293759;28;96782;-74
2023/03/15 10:21:32;;;;;;;8.63;4.05;;;;;;;20.92;42.62;100659.59;10294099;28;96856;-74
2023/03/15 10:26:40;;;;;;;10.23;3.72;;;;;;;20.27;42.90;100633.25;10292120;28;96650;-76
2023/03/15 10:31:46;;;;;;;7.25;3.65;;;;;;;19.99;43.19;100628.22;10309983;28;96791;-76
2023/03/15 10:36:54;;;;;;;8.13;3.67;;;;;;;19.97;43.33;100623.94;10334211;28;96718;-74
2023/03/15 10:41:57;;;;;;;8.57;4.40;;;;;;;20.98;42.25;100629.72;10293144;28;96733;-74
2023/03/15 10:47:05;;;;;;;8.40;4.70;;;;;;;21.08;41.83;100620.00;10293071;28;96710;-74
2023/03/15 10:52:33;;;;;;;11.20;4.47;;;;;;;20.51;42.12;100621.75;10292875;28;96620;-74
2023/03/15 10:57:39;;;;;;;10.63;5.38;;;;;;;21.18;41.14;100613.00;10293286;28;96692;-76
2023/03/15 11:02:49;;;;;;;10.90;5.30;;;;;;;21.84;39.98;100614.84;10320986;28;96757;-75
2023/03/15 11:07:59;;;;;;;9.30;4.13;;;;;;;21.96;39.24;100613.88;10333441;28;96501;-74
2023/03/15 11:13:20;;;;;;;7.57;4.00;;;;;;;22.08;38.63;100592.31;10315409;28;96698;-73
2023/03/15 11:18:29;;;;;;;8.88;4.28;;;;;;;22.41;38.61;100594.91;10291219;28;96593;-74
2023/03/15 11:23:38;;;;;;;9.75;3.90;;;;;;;23.15;37.53;100593.94;10292054;28;96576;-74
2023/03/15 11:28:48;;;;;;;8.30;3.60;;;;;;;23.29;37.27;100576.66;10291960;28;96914;-74
2023/03/15 11:33:56;;;;;;;8.75;4.00;;;;;;;23.41;37.10;100575.56;10291460;28;96983;-74
2023/03/15 11:39:03;;;;;;;9.13;3.60;;;;;;;23.47;36.25;100570.53;10291697;28;96823;-74
2023/03/15 11:44:15;;;;;;;8.25;3.25;;;;;;;23.72;35.86;100563.03;10291200;28;96965;-74
2023/03/15 11:49:27;;;;;;;7.50;3.50;;;;;;;23.62;35.51;100549.53;10327964;28;96832;-74
2023/03/15 11:54:32;;;;;;;10.15;3.67;;;;;;;23.45;35.96;100540.25;10332895;28;96852;-74
2023/03/15 11:59:37;;;;;;;8.90;4.18;;;;;;;;;;10332100;28;96606;-74
2023/03/15 12:04:44;;;;;;;8.63;3.55;;;;;;;23.42;34.79;100518.19;10314216;28;96669;-74
2023/03/15 12:09:55;;;;;;;7.05;3.60;;;;;;;23.63;35.46;100510.94;10296307;28;96888;-74
2023/03/15 12:15:05;;;;;;;7.90;3.70;;;;;;;24.21;34.13;100507.34;10298386;28;96718;-74
2023/03/15 12:20:18;;;;;;;6.68;3.40;;;;;;;26.19;31.06;100491.69;10298435;28;96770;-74
2023/03/15 12:25:31;;;;;;;8.40;4.18;;;;;;;25.37;33.07;100488.19;10297304;28;96730;-74
2023/03/15 12:30:41;;;;;;;7.50;3.60;;;;;;;26.01;31.92;100484.56;10304580;28;96694;-74
2023/03/15 12:35:44;;;;;;;8.90;4.03;;;;;;;25.44;32.26;100485.75;10338448;28;96622;-74
2023/03/15 12:40:53;;;;;;;8.68;3.50;;;;;;;25.76;31.78;100473.53;10337700;28;96813;-74
2023/03/15 12:45:56;;;;;;;8.27;3.53;;;;;;;25.42;32.32;100471.56;10338954;28;96735;-74
2023/03/15 12:51:14;;;;;;;7.65;3.70;;;;;;;26.77;30.57;100470.41;10338239;28;96730;-74
2023/03/15 12:56:31;;;;;;;7.43;3.58;;;;;;;25.39;31.33;100463.78;10309235;28;97084;-74
2023/03/15 13:01:34;;;;;;;7.40;3.85;;;;;;;26.09;30.90;100463.09;10295521;28;96649;-74
2023/03/15 13:06:51;;;;;;;7.38;3.70;;;;;;;26.06;30.46;100445.34;10336809;28;96774;-74
2023/03/15 13:12:01;;;;;;;9.05;4.05;;;;;;;26.95;29.35;100438.81;10320542;28;96621;-74
2023/03/15 13:17:16;;;;;;;5.85;3.55;;;;;;;26.40;29.89;100421.22;10294840;28;96901;-74
2023/03/15 13:22:29;;;;;;;6.40;3.38;;;;;;;26.14;29.86;100421.16;10295779;28;96687;-74
2023/03/15 13:27:50;;;;;;;7.67;3.73;;;;;;;26.61;28.63;100406.34;10295966;28;96716;-74
2023/03/15 13:33:06;;;;;;;6.25;3.40;;;;;;;27.40;28.77;100396.13;10308929;28;98413;-74
2023/03/15 13:38:22;;;;;;;6.93;3.15;;;;;;;27.32;29.21;100392.56;10337060;28;96825;-74
2023/03/15 13:43:31;;;;;;;5.25;3.17;;;;;;;27.49;28.70;100375.38;10335847;28;96776;-74
2023/03/15 13:48:36;;;;;;;8.23;4.28;;;;;;;29.04;26.68;100371.44;10297198;28;96614;-74
2023/03/15 13:53:40;;;;;;;5.93;3.63;;;;;;;28.01;28.29;100353.31;10293835;28;97217;-74
2023/03/15 13:58:53;;;;;;;7.07;3.30;;;;;;;28.09;27.79;100345.19;10294283;28;96780;-74
2023/03/15 14:04:01;;;;;;;6.30;3.13;;;;;;;27.94;27.67;100336.06;10319565;28;96677;-74
2023/03/15 14:09:10;;;;;;;8.75;3.83;;;;;;;27.90;28.41;100323.06;10335469;28;97132;-74
2023/03/15 14:14:35;;;;;;;6.60;3.65;;;;;;;27.86;27.28;100308.16;10335687;28;97417;-74
2023/03/15 14:19:38;;;;;;;6.70;3.35;;;;;;;27.99;27.79;100289.56;10334420;28;97373;-74
2023/03/15 14:24:43;;;;;;;8.10;3.53;;;;;;;28.24;27.48;100282.25;10334626;28;96849;-74
2023/03/15 14:29:50;;;;;;;7.00;3.63;;;;;;;27.68;28.48;100273.19;10334741;28;96831;-74
2023/03/15 14:35:00;;;;;;;6.53;3.53;;;;;;;27.26;28.68;100261.63;10334271;28;96666;-74
2023/03/15 14:40:19;;;;;;;5.07;3.15;;;;;;;27.73;28.98;100240.22;10293443;28;96624;-74
2023/03/15 14:45:26;;;;;;;6.82;3.42;;;;;;;27.26;28.52;100244.56;10292118;28;97145;-74
2023/03/15 14:50:34;;;;;;;7.47;4.07;;;;;;;27.24;28.56;100242.03;10293317;28;96704;-73
2023/03/15 14:55:37;;;;;;;9.25;4.13;;;;;;;26.82;29.72;100225.88;10293447;28;97191;-74
2023/03/15 15:00:43;;;;;;;7.80;4.07;;;;;;;27.00;29.51;100218.50;10292649;28;97518;-73
2023/03/15 15:05:47;;;;;;;7.25;3.95;;;;;;;26.49;30.39;100213.28;10332438;28;96762;-73
2023/03/15 15:10:52;;;;;;;7.82;3.47;;;;;;;27.09;30.27;100210.44;10317957;28;96818;-74
2023/03/15 15:15:57;;;;;;;9.80;4.32;;;;;;;26.24;30.81;100203.38;10292350;28;96638;-73
2023/03/15 15:21:02;;;;;;;9.10;3.97;;;;;;;25.95;31.24;100200.19;10292854;28;96748;-73
2023/03/15 15:26:17;;;;;;;8.52;4.00;;;;;;;26.52;30.94;100183.28;10292578;28;97000;-76
2023/03/15 15:31:23;;;;;;;8.57;3.70;;;;;;;26.37;30.13;100184.91;10298615;28;96811;-76
2023/03/15 15:36:29;;;;;;;6.43;3.22;;;;;;;25.22;31.76;100166.44;10330939;28;96853;-76
2023/03/15 15:41:34;;;;;;;8.13;3.97;;;;;;;24.68;31.71;100164.72;10332611;28;96697;-76
2023/03/15 15:46:39;;;;;;;6.13;3.37;;;;;;;23.96;33.49;100160.28;10301579;28;96780;-75
2023/03/15 15:51:45;;;;;;;6.05;3.55;;;;;;;23.71;34.13;100148.34;10291285;28;96821;-75
2023/03/15 15:56:51;;;;;;;8.15;3.40;;;;;;;23.49;33.82;100146.78;10291636;28;96635;-75
2023/03/15 16:01:55;;;;;;;7.32;3.88;;;;;;;23.50;34.21;100118.09;10291710;28;96692;-75
2023/03/15 16:07:04;;;;;;;7.85;3.90;;;;;;;23.33;33.59;100113.47;10322929;28;96945;-75
2023/03/15 16:12:13;;;;;;;6.93;3.10;;;;;;;23.27;33.45;100106.84;10332542;28;96639;-75
2023/03/15 16:17:21;;;;;;;7.07;3.53;;;;;;;23.14;33.98;100102.78;10328708;28;96746;-75
2023/03/15 16:22:25;;;;;;;5.85;3.40;;;;;;;22.84;34.80;100089.50;10290911;28;96766;-75
2023/03/15 16:27:29;;;;;;;5.63;3.17;;;;;;;22.76;35.94;100084.00;10289256;28;96733;-75
2023/03/15 16:32:34;;;;;;;6.30;3.70;;;;;;;22.71;35.82;100076.38;10307081;28;97179;-75
2023/03/15 16:37:46;;;;;;;7.32;3.63;;;;;;;22.66;36.17;100075.09;10330685;28;96645;-75
2023/03/15 16:42:50;;;;;;;6.82;3.55;;;;;;;22.64;36.42;100075.25;10331495;28;97869;-75
2023/03/15 16:47:55;;;;;;;8.53;4.00;;;;;;;22.52;36.81;100085.25;10331671;28;96964;-75
2023/03/15 16:53:01;;;;;;;6.55;3.53;;;;;;;22.54;36.94;100083.28;10336897;28;96835;-75
2023/03/15 16:58:14;;;;;;;6.72;3.33;;;;;;;22.27;38.01;100082.25;10337767;28;96783;-75
2023/03/15 17:03:20;;;;;;;7.95;4.38;;;;;;;22.38;38.28;100079.47;10338138;28;97024;-75
2023/03/15 17:08:24;;;;;;;8.32;3.80;;;;;;;22.43;38.35;100083.44;10333194;28;96792;-75
2023/03/15 17:13:30;;;;;;;11.63;3.72;;;;;;;22.42;39.03;100088.91;10296110;28;96647;-75
2023/03/15 17:18:35;;;;;;;8.07;3.97;;;;;;;22.32;38.78;100082.69;10294622;28;96725;-75
2023/03/15 17:23:38;;;;;;;9.57;3.90;;;;;;;22.38;39.45;100082.16;10294685;28;97286;-75
2023/03/15 17:28:41;;;;;;;6.95;3.83;;;;;;;22.39;40.33;100091.88;10295116;28;97027;-75
2023/03/15 17:33:47;;;;;;;7.35;4.68;;;;;;;22.30;42.39;100082.81;10322085;28;96836;-75
2023/03/15 17:38:50;;;;;;;7.18;3.90;;;;;;;22.16;43.17;100085.06;10337121;28;96840;-75
2023/03/15 17:43:54;;;;;;;7.80;4.23;;;;;;;21.93;43.93;100079.06;10335121;28;97454;-74
2023/03/15 17:48:58;;;;;;;7.80;4.18;;;;;;;21.75;47.21;100085.19;10336199;28;96572;-75
2023/03/15 17:54:02;;;;;;;11.25;5.57;;;;;;;21.38;49.34;100079.53;10336961;28;96701;-75
2023/03/15 17:59:05;;;;;;;8.63;5.60;;;;;;;21.16;50.54;100077.84;10333901;28;96941;-74
2023/03/15 18:04:11;;;;;;;9.32;5.05;;;;;;;20.83;52.12;100075.34;10335522;28;96768;-74
2023/03/15 18:09:15;;;;;;;11.23;4.88;;;;;;;20.61;53.30;100074.59;10334325;28;96765;-74
2023/03/15 18:14:18;;;;;;;11.63;6.10;;;;;;;20.42;52.13;100085.97;10335680;28;96704;-74
2023/03/15 18:19:22;;;;;;;10.13;6.68;;;;;;;20.16;51.92;100093.44;10334645;28;96850;-74
2023/03/15 18:24:25;;;;;;;;;;;;;;;19.81;51.41;100087.41;10335751;28;96774;-74
2023/03/15 18:29:28;;;;;;;14.38;6.30;;;;;;;19.76;51.10;100099.41;10334514;28;96598;-74
2023/03/15 18:34:33;;;;;;;13.07;7.07;;;;;;;19.55;51.74;100106.44;10334461;28;96845;-74
2023/03/15 18:39:37;;;;;;;13.35;6.72;;;;;;;19.41;51.98;100120.88;10334511;28;96568;-74
2023/03/15 18:44:42;;;;;;;14.03;7.70;;;;;;;19.29;52.33;100121.81;10334716;28;96946;-74
2023/03/15 18:49:47;;;;;;;17.02;7.10;;;;;;;19.11;53.11;100131.25;10334165;28;96755;-74
2023/03/15 18:54:55;;;;;;;15.23;7.80;;;;;;;18.93;53.57;100133.47;10334236;28;96815;-74
2023/03/15 18:59:58;;;;;;;15.27;7.95;;;;;;;18.79;53.79;100147.00;10332629;28;96670;-74
2023/03/15 19:05:02;;;;;;;16.67;8.48;;;;;;;18.76;53.84;100151.72;10333578;28;96665;-74
2023/03/15 19:10:07;;;;;;;13.70;7.63;;;;;;;18.66;54.03;100156.84;10306826;28;97253;-74
2023/03/15 19:15:14;;;;;;;15.10;8.77;;;;;;;18.56;54.37;100174.50;10292427;28;96668;-74
2023/03/15 19:20:20;;;;;;;16.58;8.30;;;;;;;18.45;54.36;100163.75;10292114;28;97145;-74
2023/03/15 19:25:24;;;;;;;20.33;8.95;;;;;;;18.28;54.99;100180.09;10292680;28;96747;-74
2023/03/15 19:30:27;;;;;;;17.83;8.63;;;;;;;18.12;55.73;100177.69;10290847;28;96873;-74
2023/03/15 19:35:31;;;;;;;17.90;8.05;;;;;;;17.94;56.62;100181.69;10304374;28;96659;-74
2023/03/15 19:40:36;;;;;;;15.32;7.97;;;;;;;17.81;56.94;100188.81;10333273;28;96869;-74
2023/03/15 19:45:39;;;;;;;19.42;9.20;;;;;;;17.73;56.97;100190.31;10293617;28;96644;-74
2023/03/15 19:50:43;;;;;;;20.58;9.80;;;;;;;17.62;57.37;100195.53;10290340;28;96990;-74
2023/03/15 19:55:47;;;;;;;18.67;9.27;;;;;;;17.49;57.68;100192.88;10291393;28;96678;-74
2023/03/15 20:00:50;;;;;;;18.08;8.10;;;;;;;17.38;57.29;100202.50;10291793;28;96760;-74
2023/03/15 20:05:55;;;;;;;19.73;8.77;;;;;;;17.32;57.44;100205.56;10317746;28;96691;-74
2023/03/15 20:11:02;;;;;;;16.13;8.57;;;;;;;17.02;57.90;100203.16;10332280;28;96764;-74
2023/03/15 20:16:06;;;;;;;19.75;8.65;;;;;;;17.03;57.93;100202.22;10322082;28;96732;-74
2023/03/15 20:21:13;;;;;;;16.17;8.37;;;;;;;16.95;58.12;100202.72;10291374;28;96658;-74
2023/03/15 20:26:17;;;;;;;15.32;8.38;;;;;;;17.01;58.19;100201.47;10296925;28;98163;-74
2023/03/15 20:31:21;;;;;;;14.87;8.27;;;;;;;17.01;57.87;100206.78;10297185;28;96843;-74
2023/03/15 20:36:26;;;;;;;17.77;8.75;;;;;;;16.94;58.48;100205.50;10298092;28;96768;-74
2023/03/15 20:41:30;;;;;;;18.00;8.15;;;;;;;16.80;59.38;100193.13;10296066;28;96614;-74
2023/03/15 20:46:33;;;;;;;16.48;9.57;;;;;;;16.49;60.75;100192.56;10297421;28;96703;-74
2023/03/15 20:51:38;;;;;;;18.02;8.98;;;;;;;16.36;61.09;100196.94;10319145;28;96771;-74
2023/03/15 20:56:41;;;;;;;15.52;8.77;;;;;;;16.06;62.25;100201.53;10337976;28;96889;-74
2023/03/15 21:01:46;;;;;;;19.17;8.90;;;;;;;16.09;61.69;100202.19;10338051;28;97413;-74
2023/03/15 21:06:50;;;;;;;15.98;8.27;;;;;;;16.08;61.71;100219.06;10329773;28;96695;-74
2023/03/15 21:11:55;;;;;;;17.05;9.13;;;;;;;15.94;62.55;100213.78;10296192;28;96719;-74
2023/03/15 21:17:00;;;;;;;17.55;9.43;;;;;;;15.85;62.59;100219.63;10297086;28;96833;-74
2023/03/15 21:22:05;;;;;;;;;;;;;;;15.50;64.14;100211.19;10296494;28;96806;-74
2023/03/15 21:27:10;;;;;;;17.70;9.35;;;;;;;15.60;63.12;100201.72;10330233;28;96852;-74
2023/03/15 21:32:13;;;;;;;15.30;8.60;;;;;;;15.69;62.20;100200.28;10335429;28;97297;-74
2023/03/15 21:37:19;;;;;;;18.55;8.52;;;;;;;15.62;62.41;100207.78;10335421;28;96800;-74
2023/03/15 21:42:23;;;;;;;15.65;8.80;;;;;;;15.69;62.26;100213.56;10335573;28;97472;-74
2023/03/15 21:47:26;;;;;;;14.98;8.35;;;;;;;15.34;63.69;100215.69;10336196;28;96667;-74
2023/03/15 21:52:31;;;;;;;17.33;8.95;;;;;;;15.34;63.73;100215.69;10336011;28;96605;-74
2023/03/15 21:57:34;;;;;;;;;;;;;;;15.15;64.64;100228.28;10330196;28;96920;-74
2023/03/15 22:02:38;;;;;;;16.33;9.13;;;;;;;15.26;63.91;100209.13;10295068;28;96837;-73
2023/03/15 22:07:43;;;;;;;16.90;9.38;;;;;;;15.18;64.02;100195.47;10323401;28;96743;-74
2023/03/15 22:12:46;;;;;;;14.88;8.73;;;;;;;15.24;63.93;100169.44;10335550;28;97251;-74
2023/03/15 22:17:50;;;;;;;17.88;8.23;;;;;;;14.92;64.46;100135.19;10302004;28;96690;-74
2023/03/15 22:22:55;;;;;;;19.27;8.57;;;;;;;14.64;66.34;100122.72;10293054;28;97195;-74
2023/03/15 22:27:58;;;;;;;16.35;8.55;;;;;;;14.60;66.49;100121.16;10292791;28;96839;-74
2023/03/15 22:33:02;;;;;;;18.27;9.27;;;;;;;14.54;66.69;100109.13;10294276;28;97454;-74
2023/03/15 22:38:08;;;;;;;15.60;8.63;;;;;;;14.68;65.59;100088.00;10310423;28;98101;-74
2023/03/15 22:43:12;;;;;;;14.40;8.75;;;;;;;14.69;65.57;100081.78;10334802;28;96580;-74
2023/03/15 22:48:15;;;;;;;15.50;8.77;;;;;;;14.42;67.14;100069.31;10330873;28;96724;-74
2023/03/15 22:53:20;;;;;;;13.35;8.63;;;;;;;14.46;66.52;100074.31;10293211;28;96766;-74
2023/03/15 22:58:23;;;;;;;14.18;8.45;;;;;;;14.38;66.74;100079.22;10293299;28;96943;-74
2023/03/15 23:03:27;;;;;;;18.30;8.70;;;;;;;14.39;66.91;100072.97;10293424;28;96688;-74
2023/03/15 23:08:31;;;;;;;21.02;8.57;;;;;;;14.14;67.62;100079.75;10327152;28;96905;-74
2023/03/15 23:13:34;;;;;;;17.00;8.68;;;;;;;14.11;67.73;100067.53;10332605;28;97332;-74
2023/03/15 23:18:38;;;;;;;17.27;8.38;;;;;;;14.07;67.91;100073.09;10332955;28;96662;-74